Time;durP1;ratioP1;P1;durP2;ratioP2;P2;SDS_P1;SDS_P2;PMS_P1;PMS_P2;Temp;Humidity;BMP_temperature;BMP_pressure;BME280_temperature;BME280_humidity;BME280_pressure;Samples;Min_cycle;Max_cycle;Signal;HPM_P1;HPM_P2
2022/09/23 00:01:25;;;;;;;31.55;22.55;;;;;;;;;;4963167;28;20034;-72
2022/09/23 00:03:51;;;;;;;34.00;23.75;;;;;;;;;;4960090;28;20546;-72
2022/09/23 00:06:18;;;;;;;34.88;24.63;;;;;;;;;;4962481;28;20532;-73
2022/09/23 00:08:45;;;;;;;33.15;24.35;;;;;;;;;;4966559;28;20031;-73
2022/09/23 00:11:14;;;;;;;35.47;26.13;;;;;;;;;;4960942;28;20166;-73
2022/09/23 00:13:42;;;;;;;36.33;26.50;;;;;;;;;;4963421;28;20094;-73
2022/09/23 00:16:14;;;;;;;36.70;25.73;;;;;;;;;;4963439;28;20054;-73
2022/09/23 00:18:41;;;;;;;40.10;27.35;;;;;;;;;;4969107;28;20038;-73
2022/09/23 00:21:08;;;;;;;36.53;24.67;;;;;;;;;;4963942;28;20045;-73
2022/09/23 00:23:35;;;;;;;35.85;24.42;;;;;;;;;;4965058;28;20190;-72
2022/09/23 00:26:02;;;;;;;40.45;26.85;;;;;;;;;;4965136;28;20056;-72
2022/09/23 00:28:28;;;;;;;40.72;27.08;;;;;;;;;;4967019;28;20117;-72
2022/09/23 00:30:54;;;;;;;42.00;28.00;;;;;;;;;;4963534;28;20093;-72
2022/09/23 00:33:20;;;;;;;41.25;28.08;;;;;;;;;;4972051;28;20118;-72
2022/09/23 00:35:46;;;;;;;44.30;26.77;;;;;;;;;;4962619;28;20030;-72
2022/09/23 00:38:13;;;;;;;41.78;29.33;;;;;;;;;;4962710;28;20623;-73
2022/09/23 00:40:43;;;;;;;40.45;27.70;;;;;;;;;;4968260;28;20514;-74
2022/09/23 00:43:10;;;;;;;39.38;26.88;;;;;;;;;;4971230;28;20034;-73
2022/09/23 00:45:37;;;;;;;44.40;28.13;;;;;;;;;;4963901;28;20038;-73
2022/09/23 00:48:03;;;;;;;44.75;29.50;;;;;;;;;;4963244;28;20063;-72
2022/09/23 00:50:34;;;;;;;43.10;27.70;;;;;;;;;;4963728;28;20037;-72
2022/09/23 00:53:00;;;;;;;45.85;28.83;;;;;;;;;;4963559;28;20121;-72
2022/09/23 00:55:29;;;;;;;45.83;28.48;;;;;;;;;;4957164;28;20105;-72
2022/09/23 00:57:56;;;;;;;39.65;27.15;;;;;;;;;;4965909;28;21261;-72
2022/09/23 01:00:23;;;;;;;39.28;27.30;;;;;;;;;;4965407;28;20492;-72
2022/09/23 01:02:49;;;;;;;37.67;27.25;;;;;;;;;;4968650;28;20030;-72
2022/09/23 01:05:16;;;;;;;39.58;28.08;;;;;;;;;;4958767;28;20042;-72
2022/09/23 01:07:42;;;;;;;41.20;28.50;;;;;;;;;;4963315;28;20042;-72
2022/09/23 01:10:10;;;;;;;40.70;28.55;;;;;;;;;;4960971;28;20110;-71
2022/09/23 01:12:54;;;;;;;42.80;28.70;;;;;;;;;;4966800;28;20042;-71
2022/09/23 01:15:21;;;;;;;39.72;27.65;;;;;;;;;;4961179;28;20018;-72
2022/09/23 01:17:53;;;;;;;44.45;29.10;;;;;;;;;;4963174;28;20053;-72
2022/09/23 01:20:28;;;;;;;41.35;29.10;;;;;;;;;;4959926;28;20046;-71
2022/09/23 01:23:00;;;;;;;43.38;29.50;;;;;;;;;;4964903;28;20034;-72
2022/09/23 01:25:26;;;;;;;42.60;29.42;;;;;;;;;;4975039;28;20047;-71
2022/09/23 01:28:18;;;;;;;39.53;28.30;;;;;;;;;;4967885;28;20030;-72
2022/09/23 01:30:50;;;;;;;45.95;29.40;;;;;;;;;;4962736;28;20031;-73
2022/09/23 01:33:18;;;;;;;47.42;31.42;;;;;;;;;;4961770;28;20041;-73
2022/09/23 01:36:14;;;;;;;44.08;29.98;;;;;;;;;;4962333;28;20038;-73
2022/09/23 01:38:49;;;;;;;48.40;31.35;;;;;;;;;;4963123;28;20070;-72
2022/09/23 01:41:21;;;;;;;46.92;31.15;;;;;;;;;;4960070;28;20077;-72
2022/09/23 01:43:52;;;;;;;42.05;30.48;;;;;;;;;;4965680;28;20559;-72
2022/09/23 01:46:21;;;;;;;41.65;30.35;;;;;;;;;;4959604;28;20114;-72
2022/09/23 01:48:59;;;;;;;42.00;29.60;;;;;;;;;;4975884;28;20047;-72
2022/09/23 01:51:37;;;;;;;43.58;29.63;;;;;;;;;;4964730;28;20044;-72
2022/09/23 01:54:11;;;;;;;40.13;29.38;;;;;;;;;;4961885;28;20048;-72
2022/09/23 01:56:45;;;;;;;46.80;31.67;;;;;;;;;;4963736;28;20772;-73
2022/09/23 01:59:11;;;;;;;46.42;33.33;;;;;;;;;;4964976;28;20046;-72
2022/09/23 02:01:44;;;;;;;46.60;32.13;;;;;;;;;;4963583;28;20043;-73
2022/09/23 02:04:16;;;;;;;44.42;31.55;;;;;;;;;;4964284;28;20043;-72
2022/09/23 02:06:51;;;;;;;46.60;31.75;;;;;;;;;;4961273;28;20416;-71
2022/09/23 02:09:21;;;;;;;47.47;33.35;;;;;;;;;;4961127;28;20034;-71
2022/09/23 02:11:48;;;;;;;40.47;30.85;;;;;;;;;;4962098;28;20066;-73
2022/09/23 02:14:17;;;;;;;45.78;32.03;;;;;;;;;;4959454;28;20038;-73
2022/09/23 02:16:46;;;;;;;45.40;32.22;;;;;;;;;;4965060;28;20034;-71
2022/09/23 02:19:17;;;;;;;45.92;31.02;;;;;;;;;;4964757;28;20034;-72
2022/09/23 02:21:48;;;;;;;43.72;32.08;;;;;;;;;;4964238;28;20969;-72
2022/09/23 02:24:17;;;;;;;42.80;32.10;;;;;;;;;;4965080;28;20205;-72
2022/09/23 02:26:52;;;;;;;44.13;31.45;;;;;;;;;;4968337;28;20411;-72
2022/09/23 02:29:25;;;;;;;42.30;32.13;;;;;;;;;;4966654;28;20049;-72
2022/09/23 02:31:54;;;;;;;52.88;33.40;;;;;;;;;;4967992;28;20030;-72
2022/09/23 02:34:23;;;;;;;51.92;33.90;;;;;;;;;;4965729;28;20093;-72
2022/09/23 02:37:01;;;;;;;49.70;33.95;;;;;;;;;;4968029;28;20022;-72
2022/09/23 02:39:30;;;;;;;49.08;34.70;;;;;;;;;;4967490;28;20889;-72
2022/09/23 02:42:01;;;;;;;49.38;34.42;;;;;;;;;;4967043;28;20095;-71
2022/09/23 02:44:27;;;;;;;45.97;34.22;;;;;;;;;;4963269;28;20358;-70
2022/09/23 02:46:56;;;;;;;51.78;34.80;;;;;;;;;;4983386;28;20117;-72
2022/09/23 02:49:22;;;;;;;44.90;32.92;;;;;;;;;;4966604;28;20050;-71
2022/09/23 02:51:49;;;;;;;53.15;35.08;;;;;;;;;;4968814;28;20053;-72
2022/09/23 02:54:19;;;;;;;52.42;36.65;;;;;;;;;;4970684;28;20117;-73
2022/09/23 02:56:48;;;;;;;52.20;34.93;;;;;;;;;;4966185;28;20058;-73
2022/09/23 02:59:18;;;;;;;47.38;33.80;;;;;;;;;;4967777;28;20294;-72
2022/09/23 03:02:03;;;;;;;47.05;33.60;;;;;;;;;;4966246;28;20038;-72
2022/09/23 03:04:57;;;;;;;50.75;35.20;;;;;;;;;;4964955;28;20133;-72
2022/09/23 03:07:23;;;;;;;48.63;34.92;;;;;;;;;;4965560;28;20482;-71
2022/09/23 03:10:02;;;;;;;52.45;37.17;;;;;;;;;;4966680;28;20027;-72
2022/09/23 03:12:34;;;;;;;51.53;35.38;;;;;;;;;;4966954;28;21461;-71
2022/09/23 03:15:06;;;;;;;52.47;37.47;;;;;;;;;;4966929;28;20039;-70
2022/09/23 03:17:45;;;;;;;53.97;35.85;;;;;;;;;;4969407;28;20037;-71
2022/09/23 03:20:24;;;;;;;54.75;37.17;;;;;;;;;;4968892;28;20401;-71
2022/09/23 03:22:53;;;;;;;52.10;36.40;;;;;;;;;;4964826;28;20407;-71
2022/09/23 03:25:21;;;;;;;53.17;37.28;;;;;;;;;;4962124;28;20026;-71
2022/09/23 03:27:47;;;;;;;52.83;36.88;;;;;;;;;;4966206;28;20097;-72
2022/09/23 03:30:13;;;;;;;50.85;37.05;;;;;;;;;;4964134;28;20040;-71
2022/09/23 03:32:43;;;;;;;55.65;38.30;;;;;;;;;;4967160;28;20106;-71
2022/09/23 03:35:09;;;;;;;54.25;38.78;;;;;;;;;;4963284;28;20073;-71
2022/09/23 03:37:39;;;;;;;58.55;38.75;;;;;;;;;;4966963;28;20110;-71
2022/09/23 03:40:12;;;;;;;57.80;38.38;;;;;;;;;;4968200;28;20036;-72
2022/09/23 03:42:38;;;;;;;53.58;38.25;;;;;;;;;;4965483;28;20030;-72
2022/09/23 03:45:07;;;;;;;52.25;37.30;;;;;;;;;;4976243;28;20396;-72
2022/09/23 03:47:34;;;;;;;54.88;39.03;;;;;;;;;;4968992;28;20050;-72
2022/09/23 03:50:00;;;;;;;49.97;37.15;;;;;;;;;;4966204;28;20042;-71
2022/09/23 03:52:26;;;;;;;58.58;38.25;;;;;;;;;;4966420;28;20104;-72
2022/09/23 03:54:52;;;;;;;48.30;35.20;;;;;;;;;;4964082;28;20034;-71
2022/09/23 03:57:22;;;;;;;50.05;36.30;;;;;;;;;;4965530;28;20070;-72
2022/09/23 03:59:49;;;;;;;52.22;35.72;;;;;;;;;;4967162;28;20122;-70
2022/09/23 04:02:15;;;;;;;54.30;34.80;;;;;;;;;;4962384;28;20090;-73
2022/09/23 04:04:42;;;;;;;47.10;37.00;;;;;;;;;;4963107;28;20031;-73
2022/09/23 04:07:09;;;;;;;48.95;36.00;;;;;;;;;;4962530;28;20038;-74
2022/09/23 04:09:35;;;;;;;48.88;36.88;;;;;;;;;;4966949;28;20038;-71
2022/09/23 04:12:02;;;;;;;45.00;34.63;;;;;;;;;;4965555;28;20130;-71
2022/09/23 04:14:28;;;;;;;48.05;36.17;;;;;;;;;;4965105;28;20097;-71
2022/09/23 04:16:54;;;;;;;50.20;35.83;;;;;;;;;;4964721;28;20520;-72
2022/09/23 04:19:20;;;;;;;47.45;34.75;;;;;;;;;;4967365;28;20041;-72
2022/09/23 04:21:47;;;;;;;50.75;35.70;;;;;;;;;;4964860;28;20038;-70
2022/09/23 04:24:13;;;;;;;44.63;34.80;;;;;;;;;;4963376;28;20631;-71
2022/09/23 04:26:39;;;;;;;49.50;36.25;;;;;;;;;;4963969;28;21215;-71
2022/09/23 04:29:06;;;;;;;46.88;34.45;;;;;;;;;;4964118;28;20034;-73
2022/09/23 04:31:33;;;;;;;46.65;33.17;;;;;;;;;;4965294;28;20022;-71
2022/09/23 04:33:59;;;;;;;44.90;33.15;;;;;;;;;;4975903;28;20319;-71
2022/09/23 04:36:25;;;;;;;48.72;34.60;;;;;;;;;;4961595;28;20674;-71
2022/09/23 04:38:51;;;;;;;43.47;31.80;;;;;;;;;;4968022;28;20057;-71
2022/09/23 04:41:18;;;;;;;46.28;33.20;;;;;;;;;;4964240;28;20034;-71
2022/09/23 04:43:44;;;;;;;48.80;33.63;;;;;;;;;;4966450;28;20034;-70
2022/09/23 04:46:11;;;;;;;45.72;30.98;;;;;;;;;;4959608;28;20054;-71
2022/09/23 04:48:38;;;;;;;45.72;31.50;;;;;;;;;;4975713;28;20043;-72
2022/09/23 04:51:12;;;;;;;45.30;29.85;;;;;;;;;;4961387;28;20027;-74
2022/09/23 04:53:39;;;;;;;42.65;30.80;;;;;;;;;;4962945;28;20068;-72
2022/09/23 04:56:12;;;;;;;44.95;30.63;;;;;;;;;;4960139;28;20023;-74
2022/09/23 04:58:38;;;;;;;43.95;30.55;;;;;;;;;;4962369;28;20063;-71
2022/09/23 05:01:09;;;;;;;44.42;31.23;;;;;;;;;;4958282;28;20039;-71
2022/09/23 05:03:35;;;;;;;47.17;31.80;;;;;;;;;;4956252;28;20038;-70
2022/09/23 05:06:01;;;;;;;44.75;30.48;;;;;;;;;;4964225;28;20038;-70
2022/09/23 05:08:28;;;;;;;49.63;30.77;;;;;;;;;;4960011;28;20617;-70
2022/09/23 05:10:57;;;;;;;57.00;30.90;;;;;;;;;;4959740;28;20039;-70
2022/09/23 05:13:23;;;;;;;48.67;30.48;;;;;;;;;;4968710;28;20031;-70
2022/09/23 05:15:49;;;;;;;42.88;30.02;;;;;;;;;;4960843;28;20054;-70
2022/09/23 05:18:15;;;;;;;46.50;30.63;;;;;;;;;;4963844;28;20123;-70
2022/09/23 05:20:41;;;;;;;43.17;29.55;;;;;;;;;;4974704;28;20093;-70
2022/09/23 05:23:07;;;;;;;45.75;29.23;;;;;;;;;;4963178;28;20665;-70
2022/09/23 05:25:34;;;;;;;38.90;28.42;;;;;;;;;;4960031;28;20110;-70
2022/09/23 05:28:00;;;;;;;39.42;29.55;;;;;;;;;;4961952;28;20539;-70
2022/09/23 05:30:26;;;;;;;39.67;27.52;;;;;;;;;;4970677;28;20049;-70
2022/09/23 05:32:52;;;;;;;42.22;28.75;;;;;;;;;;4981783;28;20035;-70
2022/09/23 05:35:18;;;;;;;41.85;29.58;;;;;;;;;;4961697;28;20058;-70
2022/09/23 05:37:44;;;;;;;36.45;28.65;;;;;;;;;;4966299;28;20504;-70
2022/09/23 05:40:10;;;;;;;36.72;28.25;;;;;;;;;;4982968;28;20177;-70
2022/09/23 05:42:40;;;;;;;38.50;28.10;;;;;;;;;;4974222;28;20049;-70
2022/09/23 05:45:06;;;;;;;38.63;28.00;;;;;;;;;;4966085;28;20050;-70
2022/09/23 05:47:32;;;;;;;38.58;27.23;;;;;;;;;;4983321;28;20026;-70
2022/09/23 05:49:58;;;;;;;37.70;27.55;;;;;;;;;;4965893;28;20120;-70
2022/09/23 05:52:24;;;;;;;39.35;28.17;;;;;;;;;;4965063;28;20579;-70
2022/09/23 05:54:50;;;;;;;33.78;26.15;;;;;;;;;;4961371;28;20039;-72
2022/09/23 05:57:17;;;;;;;36.92;26.73;;;;;;;;;;4964958;28;20054;-71
2022/09/23 05:59:46;;;;;;;35.20;27.33;;;;;;;;;;4975602;28;20882;-72
2022/09/23 06:02:13;;;;;;;41.22;27.20;;;;;;;;;;4966356;28;20030;-72
2022/09/23 06:04:39;;;;;;;32.45;25.17;;;;;;;;;;4977532;28;20034;-72
2022/09/23 06:07:05;;;;;;;38.10;25.63;;;;;;;;;;4969134;28;20476;-70
2022/09/23 06:09:31;;;;;;;43.63;26.95;;;;;;;;;;4976318;28;20144;-71
2022/09/23 06:11:57;;;;;;;37.55;27.60;;;;;;;;;;4965761;28;20122;-70
2022/09/23 06:14:23;;;;;;;38.58;26.10;;;;;;;;;;4979291;28;20488;-70
2022/09/23 06:16:49;;;;;;;38.00;26.15;;;;;;;;;;4961568;28;20149;-70
2022/09/23 06:19:15;;;;;;;34.20;25.63;;;;;;;;;;4967924;28;20037;-71
2022/09/23 06:21:41;;;;;;;34.92;26.08;;;;;;;;;;4965493;28;20117;-71
2022/09/23 06:24:08;;;;;;;34.78;24.90;;;;;;;;;;4960393;28;20404;-71
2022/09/23 06:26:36;;;;;;;33.92;25.08;;;;;;;;;;4964052;28;20109;-71
2022/09/23 06:29:03;;;;;;;33.45;24.50;;;;;;;;;;4981329;28;20096;-70
2022/09/23 06:31:29;;;;;;;38.70;24.83;;;;;;;;;;4964894;28;20026;-70
2022/09/23 06:33:55;;;;;;;32.13;24.92;;;;;;;;;;4958021;28;20065;-70
2022/09/23 06:36:22;;;;;;;40.03;25.30;;;;;;;;;;4984284;28;20502;-70
2022/09/23 06:38:48;;;;;;;32.95;24.73;;;;;;;;;;4969630;28;20528;-70
2022/09/23 06:41:15;;;;;;;30.90;23.70;;;;;;;;;;4978539;28;20377;-70
2022/09/23 06:43:41;;;;;;;36.53;23.65;;;;;;;;;;4971296;28;20035;-70
2022/09/23 06:46:12;;;;;;;29.27;23.27;;;;;;;;;;4972296;28;20109;-70
2022/09/23 06:48:39;;;;;;;33.47;22.38;;;;;;;;;;4954475;28;20197;-72
2022/09/23 06:51:06;;;;;;;28.48;21.23;;;;;;;;;;4971320;28;20053;-71
2022/09/23 06:53:32;;;;;;;31.65;21.92;;;;;;;;;;4983682;28;20023;-71
2022/09/23 06:56:03;;;;;;;27.55;21.60;;;;;;;;;;4972356;28;20117;-71
2022/09/23 06:58:30;;;;;;;29.00;20.98;;;;;;;;;;4975575;28;20034;-71
2022/09/23 07:01:03;;;;;;;33.88;21.90;;;;;;;;;;4969558;28;20097;-71
2022/09/23 07:03:30;;;;;;;29.83;20.17;;;;;;;;;;4982199;28;20046;-71
2022/09/23 07:05:57;;;;;;;25.88;20.63;;;;;;;;;;4976874;28;20042;-71
2022/09/23 07:08:23;;;;;;;30.33;21.63;;;;;;;;;;4972489;28;20487;-71
2022/09/23 07:10:53;;;;;;;29.38;20.15;;;;;;;;;;4970443;28;20468;-71
2022/09/23 07:13:19;;;;;;;30.20;19.23;;;;;;;;;;4970432;28;20622;-71
2022/09/23 07:15:49;;;;;;;28.83;19.38;;;;;;;;;;4973099;28;20034;-71
2022/09/23 07:18:15;;;;;;;25.20;17.93;;;;;;;;;;4981716;28;20026;-71
2022/09/23 07:20:41;;;;;;;26.08;18.95;;;;;;;;;;4971452;28;20038;-71
2022/09/23 07:23:07;;;;;;;29.15;19.88;;;;;;;;;;4969395;28;20035;-71
2022/09/23 07:25:33;;;;;;;22.08;18.40;;;;;;;;;;4970751;28;20174;-70
2022/09/23 07:27:59;;;;;;;29.15;17.13;;;;;;;;;;4985825;28;20132;-71
2022/09/23 07:30:26;;;;;;;28.40;18.38;;;;;;;;;;4960523;28;20035;-71
2022/09/23 07:32:52;;;;;;;27.58;18.10;;;;;;;;;;4970990;28;20034;-70
2022/09/23 07:35:18;;;;;;;26.63;19.02;;;;;;;;;;4969631;28;20066;-70
2022/09/23 07:37:45;;;;;;;26.00;18.58;;;;;;;;;;4974345;28;20035;-71
2022/09/23 07:40:11;;;;;;;24.63;17.33;;;;;;;;;;4969270;28;20027;-71
2022/09/23 07:42:39;;;;;;;28.05;17.20;;;;;;;;;;4970453;28;20069;-72
2022/09/23 07:45:06;;;;;;;22.50;17.27;;;;;;;;;;4976366;28;20039;-71
2022/09/23 07:47:32;;;;;;;21.60;15.98;;;;;;;;;;4976365;28;20046;-70
2022/09/23 07:49:58;;;;;;;27.40;16.33;;;;;;;;;;4971123;28;20042;-70
2022/09/23 07:52:24;;;;;;;25.75;17.15;;;;;;;;;;4970621;28;20030;-70
2022/09/23 07:54:50;;;;;;;24.27;16.35;;;;;;;;;;4984839;28;20035;-71
2022/09/23 07:57:16;;;;;;;22.42;16.55;;;;;;;;;;4970694;28;20089;-71
2022/09/23 07:59:42;;;;;;;21.02;15.98;;;;;;;;;;4977976;28;20496;-70
2022/09/23 08:02:09;;;;;;;22.40;15.55;;;;;;;;;;4957387;28;20141;-70
2022/09/23 08:04:35;;;;;;;24.80;15.23;;;;;;;;;;4979277;28;20437;-70
2022/09/23 08:07:03;;;;;;;21.05;14.38;;;;;;;;;;4973714;28;20046;-70
2022/09/23 08:09:34;;;;;;;22.83;14.55;;;;;;;;;;4980028;28;20031;-70
2022/09/23 08:12:00;;;;;;;;;;;;;;;;;;4976331;28;20104;-70
2022/09/23 08:14:26;;;;;;;25.55;15.00;;;;;;;;;;4972806;28;20312;-70
2022/09/23 08:16:53;;;;;;;19.00;14.88;;;;;;;;;;4970033;28;20510;-70
2022/09/23 08:19:19;;;;;;;18.80;14.00;;;;;;;;;;4980348;28;20041;-70
2022/09/23 08:21:46;;;;;;;21.30;13.50;;;;;;;;;;4972153;28;20117;-70
2022/09/23 08:24:17;;;;;;;20.95;14.02;;;;;;;;;;4972262;28;20068;-70
2022/09/23 08:26:43;;;;;;;17.58;12.95;;;;;;;;;;4965478;28;20682;-70
2022/09/23 08:29:11;;;;;;;22.33;13.15;;;;;;;;;;4976260;28;20543;-71
2022/09/23 08:31:37;;;;;;;20.67;13.30;;;;;;;;;;4977173;28;20022;-70
2022/09/23 08:34:03;;;;;;;21.48;13.57;;;;;;;;;;4972569;28;20034;-71
2022/09/23 08:36:30;;;;;;;20.08;12.93;;;;;;;;;;4976388;28;20045;-71
2022/09/23 08:38:56;;;;;;;17.77;12.63;;;;;;;;;;4974862;28;20389;-71
2022/09/23 08:41:41;;;;;;;16.90;11.45;;;;;;;;;;4972201;28;20037;-71
2022/09/23 08:44:15;;;;;;;16.83;9.27;;;;;;;;;;4973443;28;20472;-71
2022/09/23 08:46:45;;;;;;;19.65;8.98;;;;;;;;;;4971571;28;20030;-70
2022/09/23 08:49:13;;;;;;;14.93;7.75;;;;;;;;;;4971910;28;20050;-71
2022/09/23 08:51:44;;;;;;;19.65;8.25;;;;;;;;;;4969982;28;20129;-71
2022/09/23 08:54:11;;;;;;;11.43;7.82;;;;;;;;;;4973845;28;20015;-71
2022/09/23 08:56:38;;;;;;;17.15;8.27;;;;;;;;;;4985319;28;20113;-71
2022/09/23 08:59:27;;;;;;;13.88;8.85;;;;;;;;;;4973552;28;20468;-71
2022/09/23 09:01:57;;;;;;;16.02;8.50;;;;;;;;;;4964908;28;20050;-71
2022/09/23 09:04:43;;;;;;;15.07;8.00;;;;;;;;;;4974211;28;20034;-71
2022/09/23 09:07:11;;;;;;;16.35;8.68;;;;;;;;;;4965981;28;20039;-72
2022/09/23 09:09:40;;;;;;;16.52;7.35;;;;;;;;;;4974704;28;20045;-71
2022/09/23 09:12:12;;;;;;;12.80;6.65;;;;;;;;;;4968607;28;20057;-70
2022/09/23 09:14:56;;;;;;;17.75;7.75;;;;;;;;;;4989583;28;20029;-71
2022/09/23 09:17:37;;;;;;;18.67;6.90;;;;;;;;;;4969058;28;20038;-71
2022/09/23 09:20:18;;;;;;;16.80;7.28;;;;;;;;;;4968957;28;20078;-71
2022/09/23 09:22:59;;;;;;;16.05;7.15;;;;;;;;;;4966206;28;20031;-69
2022/09/23 09:25:25;;;;;;;;;;;;;;;;;;4969346;28;20239;-70
2022/09/23 09:27:51;;;;;;;13.68;8.68;;;;;;;;;;4969076;28;20391;-70
2022/09/23 09:30:18;;;;;;;19.90;7.93;;;;;;;;;;4969983;28;20065;-70
2022/09/23 09:32:47;;;;;;;19.25;7.80;;;;;;;;;;4985833;28;20038;-70
2022/09/23 09:35:33;;;;;;;16.70;7.65;;;;;;;;;;4973186;28;20096;-70
2022/09/23 09:38:00;;;;;;;11.18;8.05;;;;;;;;;;4968437;28;20069;-70
2022/09/23 09:40:26;;;;;;;15.93;7.35;;;;;;;;;;4971356;28;20035;-71
2022/09/23 09:42:52;;;;;;;18.60;7.88;;;;;;;;;;4980170;28;20053;-71
2022/09/23 09:45:37;;;;;;;11.80;7.88;;;;;;;;;;4974055;28;20034;-71
2022/09/23 09:48:09;;;;;;;11.45;7.78;;;;;;;;;;4976848;28;20054;-71
2022/09/23 09:50:43;;;;;;;15.88;7.50;;;;;;;;;;4972879;28;20057;-70
2022/09/23 09:53:24;;;;;;;12.95;7.50;;;;;;;;;;4985006;28;20049;-71
2022/09/23 09:56:21;;;;;;;13.48;7.32;;;;;;;;;;4971048;28;20038;-70
2022/09/23 09:58:47;;;;;;;12.38;7.20;;;;;;;;;;4970182;28;20065;-71
2022/09/23 10:01:19;;;;;;;16.02;7.18;;;;;;;;;;4970793;28;20034;-70
2022/09/23 10:03:45;;;;;;;14.85;7.00;;;;;;;;;;4974335;28;20499;-70
2022/09/23 10:06:16;;;;;;;14.73;7.57;;;;;;;;;;4970094;28;20034;-71
2022/09/23 10:08:47;;;;;;;14.10;7.15;;;;;;;;;;4967470;28;20031;-71
2022/09/23 10:11:14;;;;;;;15.93;7.53;;;;;;;;;;4968870;28;20504;-71
2022/09/23 10:13:41;;;;;;;15.90;6.55;;;;;;;;;;4975939;28;20468;-71
2022/09/23 10:16:08;;;;;;;18.67;7.70;;;;;;;;;;4989880;28;20030;-71
2022/09/23 10:18:37;;;;;;;12.52;6.32;;;;;;;;;;4974019;28;20114;-71
2022/09/23 10:21:07;;;;;;;14.68;6.68;;;;;;;;;;4970044;28;20106;-71
2022/09/23 10:23:34;;;;;;;16.63;7.63;;;;;;;;;;4971391;28;20068;-71
2022/09/23 10:26:02;;;;;;;12.30;6.70;;;;;;;;;;4970226;28;20066;-71
2022/09/23 10:28:32;;;;;;;15.65;7.13;;;;;;;;;;4974480;28;20030;-71
2022/09/23 10:31:06;;;;;;;17.40;7.57;;;;;;;;;;4974783;28;20031;-72
2022/09/23 10:33:32;;;;;;;18.17;8.23;;;;;;;;;;4969271;28;20106;-71
2022/09/23 10:35:58;;;;;;;15.25;8.10;;;;;;;;;;4967856;28;20528;-70
2022/09/23 10:38:25;;;;;;;15.25;7.72;;;;;;;;;;4980194;28;20025;-70
2022/09/23 10:46:44;;;;;;;12.07;8.23;;;;;;;;;;4964693;28;20085;-71
2022/09/23 10:49:14;;;;;;;19.23;9.38;;;;;;;;;;4964999;28;20182;-71
2022/09/23 10:51:44;;;;;;;25.88;9.85;;;;;;;;;;4964054;28;20504;-72
2022/09/23 10:54:17;;;;;;;21.92;8.30;;;;;;;;;;4964071;28;20046;-71
2022/09/23 10:56:46;;;;;;;15.77;8.07;;;;;;;;;;4964628;28;20039;-72
2022/09/23 10:59:19;;;;;;;18.55;8.52;;;;;;;;;;4969472;28;20038;-71
2022/09/23 11:02:04;;;;;;;16.88;8.57;;;;;;;;;;4965567;28;20122;-72
2022/09/23 11:04:51;;;;;;;22.75;8.73;;;;;;;;;;4971468;28;20034;-72
2022/09/23 11:07:23;;;;;;;17.38;8.60;;;;;;;;;;4966837;28;20854;-71
2022/09/23 11:09:59;;;;;;;19.98;8.60;;;;;;;;;;4981611;28;20040;-71
2022/09/23 11:12:25;;;;;;;17.83;8.55;;;;;;;;;;4974717;28;20030;-72
2022/09/23 11:14:59;;;;;;;15.40;8.55;;;;;;;;;;4969948;28;20030;-71
2022/09/23 11:17:28;;;;;;;10.32;7.60;;;;;;;;;;4964241;28;20039;-71
2022/09/23 11:20:15;;;;;;;14.45;7.88;;;;;;;;;;4964619;28;20030;-71
2022/09/23 11:22:59;;;;;;;16.58;8.35;;;;;;;;;;4966512;28;20050;-71
2022/09/23 11:25:45;;;;;;;21.77;8.75;;;;;;;;;;4973390;28;20030;-71
2022/09/23 11:28:17;;;;;;;16.05;8.40;;;;;;;;;;4974973;28;20113;-71
2022/09/23 11:30:43;;;;;;;13.35;7.90;;;;;;;;;;4971950;28;20050;-71
2022/09/23 11:33:30;;;;;;;12.05;7.93;;;;;;;;;;4986570;28;20014;-72
2022/09/23 11:36:04;;;;;;;21.25;7.75;;;;;;;;;;4989427;28;20101;-71
2022/09/23 11:38:37;;;;;;;17.42;7.97;;;;;;;;;;4969802;28;20488;-72
2022/09/23 11:41:16;;;;;;;12.05;7.53;;;;;;;;;;4970409;28;20027;-73
2022/09/23 11:43:43;;;;;;;14.40;7.50;;;;;;;;;;4961130;28;20054;-71
2022/09/23 11:46:17;;;;;;;12.80;6.20;;;;;;;;;;4968213;28;20026;-71
2022/09/23 11:48:58;;;;;;;17.23;6.68;;;;;;;;;;4983445;28;20055;-71
2022/09/23 11:51:24;;;;;;;;;;;;;;;;;;4971632;28;20069;-72
2022/09/23 11:54:13;;;;;;;13.70;6.47;;;;;;;;;;4975854;28;19945;-72
2022/09/23 11:56:47;;;;;;;11.35;5.93;;;;;;;;;;4977338;28;20026;-72
2022/09/23 11:59:33;;;;;;;12.27;6.32;;;;;;;;;;4974778;28;20042;-72
2022/09/23 12:02:19;;;;;;;13.95;7.07;;;;;;;;;;4974503;28;20039;-71
2022/09/23 12:04:47;;;;;;;13.45;6.95;;;;;;;;;;4964233;28;20556;-71
2022/09/23 12:07:19;;;;;;;14.10;6.68;;;;;;;;;;4963562;28;20054;-72
2022/09/23 12:09:45;;;;;;;15.13;6.72;;;;;;;;;;4976516;28;20092;-71
2022/09/23 12:12:14;;;;;;;10.43;6.72;;;;;;;;;;4963663;28;20035;-72
2022/09/23 12:14:40;;;;;;;12.90;7.75;;;;;;;;;;4963228;28;20055;-72
2022/09/23 12:17:14;;;;;;;16.15;8.15;;;;;;;;;;4963856;28;20054;-71
2022/09/23 12:19:43;;;;;;;13.23;7.55;;;;;;;;;;4960894;28;20035;-73
2022/09/23 12:22:28;;;;;;;15.65;7.53;;;;;;;;;;4961255;28;20027;-70
2022/09/23 12:24:57;;;;;;;14.88;7.60;;;;;;;;;;4962324;28;20120;-71
2022/09/23 12:27:27;;;;;;;13.18;6.82;;;;;;;;;;4966041;28;20034;-71
2022/09/23 12:29:59;;;;;;;17.88;7.65;;;;;;;;;;4966343;28;20034;-72
2022/09/23 12:32:25;;;;;;;13.52;7.35;;;;;;;;;;4977744;28;20037;-71
2022/09/23 12:34:52;;;;;;;11.02;7.10;;;;;;;;;;4967025;28;20045;-72
2022/09/23 12:37:26;;;;;;;13.75;7.85;;;;;;;;;;4963639;28;20031;-72
2022/09/23 12:39:53;;;;;;;13.77;7.82;;;;;;;;;;4963792;28;21109;-72
2022/09/23 12:42:21;;;;;;;15.45;8.13;;;;;;;;;;4979120;28;20046;-71
2022/09/23 12:44:48;;;;;;;13.77;8.07;;;;;;;;;;4964776;28;20136;-72
2022/09/23 12:47:19;;;;;;;16.00;8.40;;;;;;;;;;4959159;28;20062;-72
2022/09/23 12:49:45;;;;;;;13.93;8.40;;;;;;;;;;4964289;28;20150;-71
2022/09/23 12:52:18;;;;;;;12.25;7.40;;;;;;;;;;4963596;28;20068;-72
2022/09/23 12:54:45;;;;;;;14.90;8.07;;;;;;;;;;4966381;28;20035;-72
2022/09/23 12:57:34;;;;;;;14.45;8.00;;;;;;;;;;4962499;28;20122;-72
2022/09/23 13:00:10;;;;;;;17.23;8.70;;;;;;;;;;4966075;28;20117;-71
2022/09/23 13:02:38;;;;;;;13.02;8.45;;;;;;;;;;4969736;28;20035;-72
2022/09/23 13:07:57;;;;;;;16.13;8.95;;;;;;;;;;4964493;28;20602;-72
2022/09/23 13:10:37;;;;;;;16.55;9.30;;;;;;;;;;4968275;28;20038;-69
2022/09/23 13:13:04;;;;;;;18.03;9.50;;;;;;;;;;4968306;28;20030;-70
2022/09/23 13:15:34;;;;;;;16.50;8.88;;;;;;;;;;4965581;28;20528;-71
2022/09/23 13:18:21;;;;;;;18.93;9.43;;;;;;;;;;4964662;28;20445;-70
2022/09/23 13:20:48;;;;;;;14.43;9.88;;;;;;;;;;4968889;28;20035;-71
2022/09/23 13:23:27;;;;;;;20.10;10.60;;;;;;;;;;4971590;28;20026;-70
2022/09/23 13:25:55;;;;;;;35.65;10.82;;;;;;;;;;4963506;28;20042;-71
2022/09/23 13:28:37;;;;;;;17.45;10.05;;;;;;;;;;4965676;28;20047;-70
2022/09/23 13:31:05;;;;;;;14.27;11.48;;;;;;;;;;4967723;28;20097;-71
2022/09/23 13:33:38;;;;;;;18.83;11.82;;;;;;;;;;4974062;28;20050;-71
2022/09/23 13:36:09;;;;;;;19.17;12.02;;;;;;;;;;4966849;28;20031;-71
2022/09/23 13:38:35;;;;;;;22.38;13.10;;;;;;;;;;4966754;28;20058;-71
2022/09/23 13:41:04;;;;;;;20.70;13.18;;;;;;;;;;4967958;28;20503;-71
2022/09/23 13:43:32;;;;;;;29.67;13.25;;;;;;;;;;4965106;28;20034;-71
2022/09/23 13:45:58;;;;;;;20.60;12.75;;;;;;;;;;4972340;28;20019;-71
2022/09/23 13:48:27;;;;;;;19.40;12.60;;;;;;;;;;4967419;28;20061;-71
2022/09/23 13:50:53;;;;;;;20.05;12.82;;;;;;;;;;4981309;28;20149;-71
2022/09/23 13:53:24;;;;;;;15.13;11.90;;;;;;;;;;4972174;28;20886;-69
2022/09/23 13:56:10;;;;;;;21.30;12.85;;;;;;;;;;4959274;28;20038;-69
2022/09/23 13:58:36;;;;;;;13.73;10.18;;;;;;;;;;4968975;28;20031;-69
2022/09/23 14:01:02;;;;;;;19.02;10.23;;;;;;;;;;4974558;28;20035;-69
2022/09/23 14:03:33;;;;;;;17.17;9.93;;;;;;;;;;4980416;28;20042;-69
2022/09/23 14:06:01;;;;;;;17.63;9.77;;;;;;;;;;4961406;28;20027;-69
2022/09/23 14:08:28;;;;;;;19.65;9.55;;;;;;;;;;4966455;28;20228;-70
2022/09/23 14:10:55;;;;;;;21.88;8.55;;;;;;;;;;4967731;28;20064;-71
2022/09/23 14:13:24;;;;;;;19.13;8.43;;;;;;;;;;4988066;28;20039;-70
2022/09/23 14:15:51;;;;;;;14.85;7.90;;;;;;;;;;4971031;28;20033;-70
2022/09/23 14:18:37;;;;;;;14.18;7.53;;;;;;;;;;4971365;28;20782;-70
2022/09/23 14:21:04;;;;;;;14.15;6.40;;;;;;;;;;4965249;28;20062;-70
2022/09/23 14:23:30;;;;;;;12.55;6.93;;;;;;;;;;4962814;28;21187;-70
2022/09/23 14:25:57;;;;;;;10.23;6.68;;;;;;;;;;4965303;28;20038;-70
2022/09/23 14:28:25;;;;;;;11.75;7.10;;;;;;;;;;4966803;28;20081;-71
2022/09/23 14:30:52;;;;;;;10.90;6.60;;;;;;;;;;4967066;28;20114;-69
2022/09/23 14:33:21;;;;;;;14.52;6.60;;;;;;;;;;4970337;28;20022;-71
2022/09/23 14:35:50;;;;;;;12.15;7.15;;;;;;;;;;4969584;28;20043;-70
2022/09/23 14:41:16;;;;;;;12.05;6.63;;;;;;;;;;4964753;28;20101;-70
2022/09/23 14:43:47;;;;;;;17.25;7.65;;;;;;;;;;4976959;28;20038;-71
2022/09/23 14:46:13;;;;;;;;;;;;;;;;;;4971637;28;20499;-72
2022/09/23 14:48:39;;;;;;;10.90;7.43;;;;;;;;;;4973204;28;19937;-73
2022/09/23 14:51:07;;;;;;;12.00;8.18;;;;;;;;;;4965053;28;20593;-69